Time;durP1;ratioP1;P1;durP2;ratioP2;P2;SDS_P1;SDS_P2;PMS_P1;PMS_P2;Temp;Humidity;BMP_temperature;BMP_pressure;BME280_temperature;BME280_humidity;BME280_pressure;Samples;Min_cycle;Max_cycle;Signal;HPM_P1;HPM_P2
2021/06/27 07:08:46;;;;;;;11.45;6.70;;;;;;;23.26;100.00;98657.80;1811115;79;23037;-63
2021/06/27 07:11:16;;;;;;;10.55;6.90;;;;;;;23.38;100.00;98652.09;1787769;80;20918;-65
2021/06/27 07:13:45;;;;;;;12.37;6.70;;;;;;;23.42;100.00;98650.92;1786180;80;21560;-64
2021/06/27 07:16:13;;;;;;;8.20;6.75;;;;;;;23.41;100.00;98650.05;1787045;80;20880;-65
2021/06/27 07:18:41;;;;;;;11.10;7.20;;;;;;;23.39;100.00;98648.43;1786925;80;20864;-64
2021/06/27 07:21:17;;;;;;;9.80;6.97;;;;;;;23.39;100.00;98656.02;1757779;81;20934;-63
2021/06/27 07:23:47;;;;;;;8.28;6.62;;;;;;;23.40;100.00;98646.13;1759378;81;21501;-64
2021/06/27 07:26:15;;;;;;;8.60;6.60;;;;;;;23.41;100.00;98644.67;1759585;80;21268;-64
2021/06/27 07:28:45;;;;;;;9.90;6.75;;;;;;;23.45;100.00;98652.92;1759194;81;21512;-65
2021/06/27 07:31:14;;;;;;;9.63;6.87;;;;;;;23.48;100.00;98651.86;1759330;81;20906;-65
2021/06/27 07:33:43;;;;;;;8.03;6.83;;;;;;;23.49;100.00;98642.81;1759330;81;21417;-65
2021/06/27 07:36:12;;;;;;;8.20;6.70;;;;;;;23.51;100.00;98643.09;1759563;81;20895;-65
2021/06/27 07:38:41;;;;;;;9.23;6.72;;;;;;;23.56;100.00;98648.20;1759021;80;21134;-65
2021/06/27 07:41:12;;;;;;;9.88;7.05;;;;;;;23.60;100.00;98642.13;1738683;81;20871;-64
2021/06/27 07:43:41;;;;;;;10.32;7.08;;;;;;;23.64;100.00;98649.03;1693967;83;20907;-65
2021/06/27 07:46:09;;;;;;;9.53;6.80;;;;;;;23.69;100.00;98652.31;1739052;81;21530;-67
2021/06/27 07:48:38;;;;;;;8.58;6.10;;;;;;;23.73;100.00;98645.75;1735573;80;20970;-66
2021/06/27 07:51:08;;;;;;;9.15;6.72;;;;;;;23.74;100.00;98645.65;1739964;80;21388;-68
2021/06/27 07:53:36;;;;;;;9.68;6.28;;;;;;;23.77;100.00;98640.53;1737956;80;21491;-68
2021/06/27 07:56:06;;;;;;;7.90;7.05;;;;;;;23.79;100.00;98639.95;1740017;80;20878;-64
2021/06/27 07:58:34;;;;;;;9.63;6.33;;;;;;;23.83;100.00;98636.08;1740826;80;21542;-67
2021/06/27 08:01:03;;;;;;;8.23;6.30;;;;;;;23.89;100.00;98638.84;1738921;80;21526;-65
2021/06/27 08:03:31;;;;;;;7.42;5.87;;;;;;;23.96;100.00;98634.75;1738389;80;21142;-66
2021/06/27 08:06:00;;;;;;;8.43;5.83;;;;;;;24.07;100.00;98632.18;1729954;81;20874;-66
2021/06/27 08:08:29;;;;;;;7.92;5.92;;;;;;;24.17;100.00;98641.38;1738927;80;20914;-69
2021/06/27 08:10:58;;;;;;;8.05;6.05;;;;;;;24.27;100.00;98645.64;1733117;80;21503;-67
2021/06/27 08:13:26;;;;;;;8.50;6.20;;;;;;;24.34;100.00;98643.79;1739095;80;20962;-68
2021/06/27 08:15:57;;;;;;;7.62;5.67;;;;;;;24.41;100.00;98636.13;1740481;80;22076;-68
2021/06/27 08:18:26;;;;;;;9.10;5.70;;;;;;;24.52;100.00;98640.77;1738757;80;21509;-66
2021/06/27 08:20:56;;;;;;;8.85;5.30;;;;;;;24.67;100.00;98647.79;1730776;80;20990;-64
2021/06/27 08:23:24;;;;;;;12.65;5.80;;;;;;;24.76;100.00;98645.30;1728162;81;21036;-67
2021/06/27 08:25:54;;;;;;;7.30;5.62;;;;;;;24.87;100.00;98643.66;1728558;81;20935;-65
2021/06/27 08:28:21;;;;;;;9.30;5.70;;;;;;;24.96;100.00;98643.84;1721952;81;21099;-67
2021/06/27 08:30:50;;;;;;;10.23;5.75;;;;;;;25.08;100.00;98642.15;1727685;81;20875;-67
2021/06/27 08:33:18;;;;;;;8.28;5.53;;;;;;;25.21;100.00;98642.11;1730832;82;21046;-68
2021/06/27 08:35:56;;;;;;;7.87;5.58;;;;;;;25.30;100.00;98644.13;1739885;81;20874;-74
2021/06/27 08:38:24;;;;;;;7.67;5.62;;;;;;;25.31;100.00;98645.84;1699103;83;21851;-67
2021/06/27 08:40:57;;;;;;;8.83;5.05;;;;;;;25.28;100.00;98639.33;1739242;80;21453;-67
2021/06/27 08:43:31;;;;;;;9.78;5.72;;;;;;;25.28;100.00;98640.19;1704887;83;20935;-68
2021/06/27 08:46:05;;;;;;;10.13;5.45;;;;;;;25.27;100.00;98645.21;1733546;80;21462;-67
2021/06/27 08:48:31;;;;;;;5.85;5.22;;;;;;;25.28;100.00;98648.29;1703447;83;21492;-69
2021/06/27 08:50:59;;;;;;;6.53;5.17;;;;;;;25.34;100.00;98657.28;1730613;81;20931;-69
2021/06/27 08:53:27;;;;;;;6.80;4.90;;;;;;;25.41;100.00;98655.84;1704427;83;21138;-67
2021/06/27 08:56:13;;;;;;;6.50;5.00;;;;;;;25.49;100.00;98661.16;1737385;81;20875;-68
2021/06/27 09:18:33;;;;;;;8.08;4.58;;;;;;;26.43;100.00;98642.30;1785908;80;22510;-65
2021/06/27 09:21:05;;;;;;;7.00;4.65;;;;;;;26.57;100.00;98639.39;1791363;79;20906;-68
2021/06/27 09:23:43;;;;;;;9.53;5.10;;;;;;;26.69;100.00;98637.06;1762770;79;21164;-66
2021/06/27 09:26:14;;;;;;;5.67;4.80;;;;;;;26.80;100.00;98638.91;1791075;80;20852;-65
2021/06/27 09:28:46;;;;;;;6.55;4.80;;;;;;;26.88;100.00;98639.14;1791158;80;20887;-65
2021/06/27 09:31:38;;;;;;;8.90;4.80;;;;;;;26.95;100.00;98640.37;1791233;80;20895;-65
2021/06/27 09:34:09;;;;;;;7.60;4.75;;;;;;;27.01;100.00;98642.64;1791435;79;20962;-66
2021/06/27 09:36:47;;;;;;;4.92;4.42;;;;;;;27.08;100.00;98638.94;1791161;79;20853;-66
2021/06/27 09:39:16;;;;;;;4.85;4.35;;;;;;;27.13;100.00;98633.52;1791161;80;20962;-66
2021/06/27 09:41:52;;;;;;;6.45;4.30;;;;;;;27.25;100.00;98636.56;1791145;79;20942;-67
2021/06/27 09:44:21;;;;;;;6.58;4.65;;;;;;;27.39;100.00;98645.39;1791142;79;20910;-66
2021/06/27 09:46:54;;;;;;;7.83;4.80;;;;;;;27.50;100.00;98639.48;1791144;80;20851;-66
2021/06/27 09:49:31;;;;;;;7.65;4.58;;;;;;;27.59;100.00;98643.27;1791470;79;21112;-66
2021/06/27 09:52:06;;;;;;;7.22;5.42;;;;;;;27.65;100.00;98641.92;1791195;80;21507;-66
2021/06/27 09:54:31;;;;;;;6.17;4.53;;;;;;;27.73;100.00;98651.13;1790188;80;21441;-66
2021/06/27 09:57:00;;;;;;;6.30;4.40;;;;;;;27.81;100.00;98646.41;1791186;79;20871;-67
2021/06/27 09:59:40;;;;;;;6.33;4.90;;;;;;;27.80;100.00;98646.91;1791475;79;21521;-66
2021/06/27 10:02:08;;;;;;;5.47;4.40;;;;;;;27.79;100.00;98651.09;1791145;79;21223;-67
2021/06/27 10:04:37;;;;;;;10.70;5.30;;;;;;;27.76;100.00;98649.52;1791480;79;20953;-67
2021/06/27 10:07:07;;;;;;;5.60;4.58;;;;;;;27.67;100.00;98646.72;1791115;79;20950;-68
2021/06/27 10:09:37;;;;;;;10.10;4.30;;;;;;;27.58;100.00;98649.67;1791504;79;21374;-68
2021/06/27 10:12:10;;;;;;;6.67;4.45;;;;;;;27.49;100.00;98644.53;1791199;80;20906;-67
2021/06/27 10:14:55;;;;;;;9.58;4.37;;;;;;;27.40;100.00;98646.62;1791356;80;21112;-67
2021/06/27 10:17:26;;;;;;;7.25;4.50;;;;;;;27.32;100.00;98642.83;1790914;79;21003;-66
2021/06/27 10:19:55;;;;;;;5.80;4.33;;;;;;;27.22;100.00;98640.88;1790574;80;20867;-66
2021/06/27 10:22:28;;;;;;;6.60;4.28;;;;;;;27.16;100.00;98638.67;1790561;80;21433;-66
2021/06/27 10:24:57;;;;;;;4.95;4.45;;;;;;;27.14;100.00;98642.50;1790849;80;21666;-66
2021/06/27 10:27:27;;;;;;;6.37;4.50;;;;;;;27.15;100.00;98640.16;1790797;79;21811;-68
2021/06/27 10:29:55;;;;;;;8.73;5.17;;;;;;;27.21;100.00;98635.09;1781812;80;20923;-68
2021/06/27 10:32:24;;;;;;;7.42;4.95;;;;;;;27.32;100.00;98636.91;1767511;80;21537;-70
2021/06/27 10:34:55;;;;;;;7.62;5.37;;;;;;;27.41;100.00;98637.50;1758364;81;21001;-71
2021/06/27 10:37:38;;;;;;;7.70;5.12;;;;;;;27.51;100.00;98630.36;1757056;80;21026;-66
2021/06/27 10:40:19;;;;;;;8.85;5.30;;;;;;;27.61;100.00;98634.55;1751862;82;21156;-67
2021/06/27 10:42:54;;;;;;;9.38;5.67;;;;;;;27.62;100.00;98628.14;1730083;82;20895;-63
2021/06/27 10:45:31;;;;;;;10.38;5.20;;;;;;;27.67;100.00;98626.39;1751238;82;21516;-64
2021/06/27 10:48:02;;;;;;;6.15;4.65;;;;;;;27.79;100.00;98637.55;1747724;82;20982;-64
2021/06/27 10:50:52;;;;;;;8.18;4.62;;;;;;;27.91;100.00;98621.63;1730295;81;21015;-66
2021/06/27 10:53:20;;;;;;;9.20;4.67;;;;;;;27.98;100.00;98620.11;1751671;82;21173;-64
2021/06/27 10:55:48;;;;;;;6.10;5.00;;;;;;;28.07;100.00;98616.61;1755962;81;21505;-65
2021/06/27 10:58:17;;;;;;;5.30;4.10;;;;;;;28.18;100.00;98620.61;1755289;81;21388;-65
2021/06/27 11:00:57;;;;;;;5.55;4.17;;;;;;;28.33;100.00;98621.65;1751872;82;21450;-65
2021/06/27 11:03:41;;;;;;;11.28;4.28;;;;;;;28.47;100.00;98616.77;1751610;82;20995;-64
2021/06/27 11:06:20;;;;;;;5.78;4.03;;;;;;;28.63;100.00;98621.70;1730148;82;21083;-64
2021/06/27 11:08:55;;;;;;;7.55;3.90;;;;;;;28.76;100.00;98618.75;1751832;82;20896;-64
2021/06/27 11:11:21;;;;;;;4.55;3.90;;;;;;;28.84;100.00;98617.10;1730052;82;21426;-65
2021/06/27 11:14:15;;;;;;;6.12;3.85;;;;;;;28.90;100.00;98609.44;1751776;82;26095;-65
2021/06/27 11:17:00;;;;;;;7.12;4.00;;;;;;;28.97;100.00;98616.03;1751119;82;21033;-65
2021/06/27 11:19:40;;;;;;;5.50;3.60;;;;;;;29.02;100.00;98613.26;1763086;81;21450;-65
2021/06/27 11:22:21;;;;;;;5.78;4.17;;;;;;;29.05;100.00;98612.13;1733267;81;20911;-67
2021/06/27 11:24:53;;;;;;;4.50;3.50;;;;;;;29.11;100.00;98616.50;1763254;81;21414;-68
2021/06/27 11:27:37;;;;;;;8.05;3.70;;;;;;;29.17;100.00;98616.94;1736567;81;21440;-67
2021/06/27 11:30:25;;;;;;;8.60;3.75;;;;;;;29.22;100.00;98619.59;1783451;79;20970;-67
2021/06/27 11:32:53;;;;;;;8.45;3.90;;;;;;;29.31;100.00;98618.75;1783398;79;21152;-67
2021/06/27 11:35:41;;;;;;;3.98;3.58;;;;;;;29.34;100.00;98617.14;1783287;80;20919;-68
2021/06/27 11:38:11;;;;;;;23.10;19.12;;;;;;;29.41;100.00;98614.73;1783183;80;21406;-66
2021/06/27 11:40:46;;;;;;;19.15;14.78;;;;;;;29.49;100.00;98611.33;1787229;79;20942;-65
2021/06/27 11:43:14;;;;;;;42.50;37.53;;;;;;;29.56;100.00;98612.48;1783615;80;20926;-67
2021/06/27 11:45:43;;;;;;;16.17;14.45;;;;;;;29.60;100.00;98617.99;1783409;79;21792;-67
2021/06/27 11:48:11;;;;;;;15.03;9.03;;;;;;;29.58;100.00;98614.55;1783527;79;20899;-67
2021/06/27 11:50:41;;;;;;;22.22;19.87;;;;;;;29.59;100.00;98611.70;1783317;79;20936;-67
2021/06/27 11:53:13;;;;;;;17.27;13.25;;;;;;;29.67;100.00;98613.70;1783272;80;21481;-67
2021/06/27 11:55:43;;;;;;;;;;;;;;;29.76;100.00;98612.34;1786131;79;20887;-65
2021/06/27 11:58:24;;;;;;;6.33;4.28;;;;;;;29.88;100.00;98610.86;1784255;79;20751;-65
2021/06/27 12:00:53;;;;;;;12.23;9.05;;;;;;;29.96;100.00;98604.20;1783772;79;20872;-67
2021/06/27 12:03:22;;;;;;;62.85;57.03;;;;;;;29.98;100.00;98601.69;1784092;79;20848;-68
2021/06/27 12:05:53;;;;;;;32.42;29.35;;;;;;;30.05;100.00;98609.66;1783278;80;20844;-67
2021/06/27 12:08:22;;;;;;;41.42;37.42;;;;;;;30.11;100.00;98608.22;1783282;79;20903;-67
2021/06/27 12:10:55;;;;;;;29.37;26.40;;;;;;;30.18;100.00;98605.77;1783262;80;20887;-66
2021/06/27 12:13:25;;;;;;;12.30;7.83;;;;;;;30.23;100.00;98602.11;1783608;79;21037;-67
2021/06/27 12:15:59;;;;;;;6.80;5.87;;;;;;;30.25;100.00;98601.46;1783332;79;20970;-67
2021/06/27 12:18:31;;;;;;;7.17;3.62;;;;;;;30.24;100.00;98605.19;1783243;80;21454;-67
2021/06/27 12:21:12;;;;;;;9.38;3.72;;;;;;;30.24;100.00;98599.24;1783370;80;20880;-68
2021/06/27 12:23:44;;;;;;;100.15;90.53;;;;;;;30.27;100.00;98595.38;1783515;80;21158;-65
2021/06/27 12:26:16;;;;;;;283.43;258.13;;;;;;;30.24;100.00;98596.52;1783378;80;21504;-67
2021/06/27 12:28:55;;;;;;;417.77;375.73;;;;;;;30.16;100.00;98596.40;1783856;79;20919;-67
2021/06/27 12:31:37;;;;;;;273.48;247.88;;;;;;;30.14;100.00;98592.11;1783276;80;20979;-66
2021/06/27 12:34:09;;;;;;;62.13;55.33;;;;;;;30.13;100.00;98591.75;1782210;79;20919;-68
2021/06/27 12:36:39;;;;;;;341.05;308.70;;;;;;;30.15;100.00;98585.16;1782200;80;21109;-66
2021/06/27 12:39:21;;;;;;;53.05;47.75;;;;;;;30.25;100.00;98591.94;1783412;80;20864;-67
2021/06/27 12:41:49;;;;;;;28.50;20.25;;;;;;;30.37;100.00;98583.98;1783734;80;21411;-65
2021/06/27 12:44:18;;;;;;;27.37;24.72;;;;;;;30.42;100.00;98574.88;1777666;79;20934;-68
2021/06/27 12:46:53;;;;;;;13.83;11.90;;;;;;;30.53;100.00;98581.49;1747063;81;20908;-67
2021/06/27 12:49:23;;;;;;;7.22;6.53;;;;;;;30.64;100.00;98580.48;1747276;80;21952;-68
2021/06/27 12:52:02;;;;;;;6.97;4.47;;;;;;;30.75;100.00;98579.45;1767122;80;20923;-69
2021/06/27 12:54:39;;;;;;;34.18;19.95;;;;;;;30.87;100.00;98579.61;1764666;80;21441;-66
2021/06/27 12:57:18;;;;;;;80.25;70.72;;;;;;;30.98;100.00;98580.77;1740200;82;21461;-66
2021/06/27 12:59:55;;;;;;;107.72;96.15;;;;;;;30.99;100.00;98573.80;1761630;80;21457;-66
2021/06/27 13:02:32;;;;;;;27.82;24.92;;;;;;;30.96;100.00;98575.47;1760040;81;21296;-67
2021/06/27 13:05:05;;;;;;;38.13;34.20;;;;;;;30.93;98.03;98573.05;1764116;80;20929;-68
2021/06/27 13:07:40;;;;;;;11.12;8.65;;;;;;;30.90;97.92;98574.72;1759968;80;21464;-67
2021/06/27 13:10:15;;;;;;;5.28;3.80;;;;;;;30.89;96.74;98574.88;1730491;81;20911;-68
2021/06/27 13:13:05;;;;;;;7.67;3.52;;;;;;;30.91;96.34;98567.41;1763585;80;21068;-66
2021/06/27 13:15:40;;;;;;;5.28;2.95;;;;;;;30.92;98.13;98575.42;1730833;82;22013;-67
2021/06/27 13:18:14;;;;;;;5.35;2.67;;;;;;;30.93;95.93;98570.33;1765925;80;21443;-67
2021/06/27 13:20:44;;;;;;;8.13;3.85;;;;;;;30.89;92.18;98565.34;1762776;81;20942;-66
2021/06/27 13:23:33;;;;;;;17.80;7.58;;;;;;;30.84;93.03;98563.08;1775086;80;20995;-66
2021/06/27 13:26:11;;;;;;;9.35;7.42;;;;;;;30.83;95.75;98562.72;1775756;80;20829;-63
2021/06/27 13:28:51;;;;;;;6.85;6.15;;;;;;;30.87;96.35;98570.08;1776835;80;21136;-71
2021/06/27 13:31:34;;;;;;;9.70;4.50;;;;;;;30.79;95.30;98566.75;1775088;80;21489;-72
2021/06/27 13:34:02;;;;;;;9.33;3.40;;;;;;;30.67;95.17;98563.34;1775484;80;20860;-71
2021/06/27 13:36:43;;;;;;;36.25;31.10;;;;;;;30.61;95.51;98558.50;1731760;82;21394;-71
2021/06/27 13:39:14;;;;;;;9.83;5.62;;;;;;;30.58;94.88;98554.69;1731937;82;20892;-70
2021/06/27 13:41:45;;;;;;;51.53;34.48;;;;;;;30.47;94.44;98548.07;1762323;81;21963;-71
2021/06/27 13:44:15;;;;;;;14.53;12.47;;;;;;;30.28;92.75;98542.20;1757629;81;21500;-71
2021/06/27 13:46:44;;;;;;;11.15;9.38;;;;;;;30.08;93.41;98556.83;1753468;82;20940;-71
2021/06/27 13:49:12;;;;;;;8.05;6.60;;;;;;;29.89;96.41;98560.92;1731932;83;21449;-69
2021/06/27 13:51:41;;;;;;;7.15;5.53;;;;;;;29.71;98.13;98552.61;1726062;83;20868;-71
2021/06/27 13:54:13;;;;;;;49.50;41.83;;;;;;;29.53;100.00;98548.91;1753233;82;21180;-69
2021/06/27 13:56:46;;;;;;;30.30;25.12;;;;;;;29.48;100.00;98547.12;1732038;83;20924;-70
2021/06/27 13:59:14;;;;;;;23.67;21.17;;;;;;;29.47;100.00;98544.05;1762480;81;21002;-70
2021/06/27 14:01:43;;;;;;;23.40;17.57;;;;;;;29.46;100.00;98543.19;1731923;83;21626;-76
2021/06/27 14:04:12;;;;;;;12.05;8.60;;;;;;;29.45;100.00;98538.75;1762193;81;20919;-70
2021/06/27 14:06:41;;;;;;;6.60;5.22;;;;;;;29.47;100.00;98530.45;1731847;82;21159;-71
2021/06/27 14:09:10;;;;;;;6.60;4.70;;;;;;;29.47;100.00;98534.53;1762128;81;21391;-71
2021/06/27 14:11:37;;;;;;;13.88;4.80;;;;;;;29.50;100.00;98534.24;1731696;82;20920;-70
2021/06/27 14:14:06;;;;;;;13.05;7.00;;;;;;;29.53;99.80;98535.31;1762341;81;20959;-73
2021/06/27 14:16:37;;;;;;;73.17;58.15;;;;;;;29.55;100.00;98540.97;1732100;82;20943;-71
2021/06/27 14:19:05;;;;;;;27.82;23.05;;;;;;;29.61;100.00;98540.39;1762137;81;21119;-72
2021/06/27 14:21:34;;;;;;;12.35;9.65;;;;;;;29.63;100.00;98532.95;1732047;83;21014;-72
2021/06/27 14:24:05;;;;;;;11.12;5.80;;;;;;;29.61;100.00;98535.45;1762525;80;21002;-73
2021/06/27 14:26:38;;;;;;;15.78;9.53;;;;;;;29.63;100.00;98532.09;1731683;82;20979;-70
2021/06/27 14:29:07;;;;;;;8.78;5.00;;;;;;;29.68;100.00;98529.80;1793158;80;21009;-73
2021/06/27 14:31:35;;;;;;;28.85;25.82;;;;;;;29.72;100.00;98528.00;1762219;81;21808;-71
2021/06/27 14:34:03;;;;;;;805.65;664.80;;;;;;;29.77;100.00;98531.14;1761982;81;20992;-74
2021/06/27 14:36:35;;;;;;;709.05;628.62;;;;;;;29.78;100.00;98529.28;1762372;81;21448;-72
2021/06/27 14:39:04;;;;;;;873.20;750.87;;;;;;;29.81;100.00;98521.37;1762382;81;21534;-72
2021/06/27 14:41:32;;;;;;;740.88;642.30;;;;;;;29.85;100.00;98520.07;1762455;81;20890;-72
2021/06/27 14:44:03;;;;;;;165.62;148.05;;;;;;;29.89;100.00;98526.43;1762800;81;21118;-71
2021/06/27 14:46:33;;;;;;;53.65;48.15;;;;;;;29.89;100.00;98525.06;1762318;81;20846;-71
2021/06/27 14:49:03;;;;;;;16.87;15.15;;;;;;;29.89;100.00;98523.70;1762346;81;20902;-71
2021/06/27 14:51:32;;;;;;;114.42;101.78;;;;;;;29.89;100.00;98530.50;1762529;81;20926;-70
2021/06/27 14:54:01;;;;;;;146.57;133.15;;;;;;;29.87;100.00;98531.66;1762202;81;20838;-71
2021/06/27 14:56:31;;;;;;;47.03;42.43;;;;;;;29.86;99.61;98536.73;1762184;81;21159;-70
2021/06/27 14:59:01;;;;;;;20.27;18.15;;;;;;;29.85;97.76;98533.16;1762492;81;21404;-72
2021/06/27 15:01:30;;;;;;;76.77;68.92;;;;;;;29.84;96.11;98540.11;1761828;81;21278;-66
2021/06/27 15:03:58;;;;;;;479.72;382.43;;;;;;;29.79;96.40;98543.23;1760934;81;21018;-65
2021/06/27 15:06:26;;;;;;;102.87;92.53;;;;;;;29.77;98.66;98540.66;1761206;81;21032;-67
2021/06/27 15:08:55;;;;;;;371.32;331.90;;;;;;;29.75;99.11;98532.29;1761675;81;21791;-66
2021/06/27 15:11:24;;;;;;;367.40;329.00;;;;;;;29.76;99.36;98539.44;1761106;81;21253;-67
2021/06/27 15:13:52;;;;;;;216.35;193.60;;;;;;;29.77;100.00;98536.58;1761250;81;20954;-66
2021/06/27 15:16:22;;;;;;;110.28;99.58;;;;;;;29.77;100.00;98535.72;1761241;81;21390;-66
2021/06/27 15:18:50;;;;;;;43.78;39.60;;;;;;;29.71;100.00;98538.52;1743458;81;20995;-67
2021/06/27 15:21:19;;;;;;;21.27;19.17;;;;;;;29.60;100.00;98540.03;1745794;82;21422;-68
2021/06/27 15:23:48;;;;;;;14.63;12.80;;;;;;;29.53;100.00;98535.31;1738813;81;21445;-67
2021/06/27 15:26:21;;;;;;;518.67;463.95;;;;;;;29.43;100.00;98537.53;1741430;81;20931;-66
2021/06/27 15:28:49;;;;;;;469.75;420.68;;;;;;;29.40;100.00;98540.50;1741438;82;20935;-66
2021/06/27 15:31:18;;;;;;;156.02;140.12;;;;;;;29.39;100.00;98540.65;1741363;81;20938;-66
2021/06/27 15:33:46;;;;;;;42.05;36.30;;;;;;;29.34;100.00;98539.72;1741526;82;21176;-67
2021/06/27 15:36:15;;;;;;;52.80;47.55;;;;;;;29.29;100.00;98539.75;1741210;82;20994;-66
2021/06/27 15:38:44;;;;;;;75.15;67.75;;;;;;;29.26;100.00;98539.54;1741497;81;21042;-66
2021/06/27 15:41:12;;;;;;;115.40;103.38;;;;;;;29.24;100.00;98542.90;1741643;81;20855;-65
2021/06/27 15:43:42;;;;;;;131.03;117.10;;;;;;;29.20;100.00;98537.39;1741823;81;20906;-66
2021/06/27 15:46:11;;;;;;;136.62;122.22;;;;;;;29.13;100.00;98538.45;1741551;81;21134;-67
2021/06/27 15:48:39;;;;;;;97.78;87.20;;;;;;;29.06;100.00;98539.16;1714327;82;20910;-67
2021/06/27 15:51:07;;;;;;;50.65;43.80;;;;;;;29.01;100.00;98546.88;1741708;81;20951;-67
2021/06/27 15:53:36;;;;;;;75.25;58.50;;;;;;;28.94;100.00;98552.50;1741933;81;21202;-67
2021/06/27 15:56:06;;;;;;;22.48;12.65;;;;;;;28.85;100.00;98555.52;1741621;81;21441;-65
2021/06/27 15:58:38;;;;;;;22.75;16.93;;;;;;;28.76;100.00;98550.39;1742066;82;21226;-64
2021/06/27 16:01:08;;;;;;;6.50;5.00;;;;;;;28.64;100.00;98547.42;1742914;82;20891;-69
2021/06/27 16:03:37;;;;;;;9.10;4.17;;;;;;;28.48;100.00;98545.23;1742139;82;21422;-67
2021/06/27 16:06:06;;;;;;;6.50;3.27;;;;;;;28.32;100.00;98547.55;1742103;81;20922;-67
2021/06/27 16:08:36;;;;;;;5.78;3.95;;;;;;;28.19;100.00;98559.09;1742106;81;21563;-66
2021/06/27 16:11:05;;;;;;;5.60;3.37;;;;;;;28.09;100.00;98557.69;1741910;81;21224;-67
2021/06/27 16:13:33;;;;;;;4.83;3.30;;;;;;;27.96;100.00;98548.04;1741929;81;21431;-66
2021/06/27 16:16:02;;;;;;;7.62;3.40;;;;;;;27.85;100.00;98553.86;1742079;82;21532;-67
2021/06/27 16:18:30;;;;;;;6.70;3.10;;;;;;;27.77;100.00;98558.23;1741812;81;21421;-68
